createdAt,value
2019-04-06T00:03:15.356Z,100699.56
2019-04-06T00:08:16.931Z,100690.61
2019-04-06T00:13:18.564Z,100692.81
2019-04-06T00:18:20.201Z,100685.84
2019-04-06T00:23:21.809Z,100680.48
2019-04-06T00:28:23.394Z,100674.19
2019-04-06T00:33:25.135Z,100664.40
2019-04-06T00:38:26.744Z,100665.19
2019-04-06T00:43:28.354Z,100667.39
2019-04-06T00:48:29.943Z,100665.62
2019-04-06T00:53:31.956Z,100663.89
2019-04-06T00:58:34.001Z,100665.36
2019-04-06T01:03:35.662Z,100670.69
2019-04-06T01:08:37.558Z,100671.99
2019-04-06T01:13:39.167Z,100666.27
2019-04-06T01:18:40.842Z,100661.91
2019-04-06T01:23:42.490Z,100667.53
2019-04-06T01:28:44.422Z,100665.25
2019-04-06T01:33:46.034Z,100668.66
2019-04-06T01:38:47.991Z,100672.06
2019-04-06T01:43:49.619Z,100669.69
2019-04-06T01:48:51.520Z,100661.22
2019-04-06T01:53:53.133Z,100665.46
2019-04-06T01:58:55.214Z,100651.08
2019-04-06T02:03:57.517Z,100653.29
2019-04-06T02:08:59.147Z,100657.34
2019-04-06T02:14:00.739Z,100651.72
2019-04-06T02:19:02.397Z,100657.08
2019-04-06T02:24:05.095Z,100646.17
2019-04-06T02:29:06.714Z,100645.16
2019-04-06T02:34:08.371Z,100644.22
2019-04-06T02:39:10.285Z,100645.91
2019-04-06T02:44:12.264Z,100644.63
2019-04-06T02:49:13.831Z,100641.89
2019-04-06T02:54:15.429Z,100639.64
2019-04-06T02:59:17.537Z,100636.83
2019-04-06T03:04:19.190Z,100642.56
2019-04-06T03:09:20.822Z,100644.13
2019-04-06T03:14:22.454Z,100633.36
2019-04-06T03:19:24.028Z,100633.17
2019-04-06T03:24:25.806Z,100637.19
2019-04-06T03:29:27.575Z,100641.52
2019-04-06T03:34:29.434Z,100639.61
2019-04-06T03:39:31.046Z,100636.53
2019-04-06T03:44:32.626Z,100636.87
2019-04-06T03:49:34.884Z,100635.52
2019-04-06T03:54:36.807Z,100637.20
2019-04-06T03:59:38.710Z,100643.80
2019-04-06T04:04:40.295Z,100640.64
2019-04-06T04:09:41.886Z,100628.36
2019-04-06T04:14:43.995Z,100626.06
2019-04-06T04:19:45.551Z,100620.09
2019-04-06T04:24:47.527Z,100622.67
2019-04-06T04:29:49.397Z,100634.88
2019-04-06T04:34:51.966Z,100630.45
2019-04-06T04:39:53.484Z,100629.92
2019-04-06T04:44:55.082Z,100627.83
2019-04-06T04:49:57.124Z,100630.82
2019-04-06T04:54:58.775Z,100635.77
2019-04-06T05:00:00.379Z,100644.46
2019-04-06T05:05:01.941Z,100650.89
2019-04-06T05:10:04.606Z,100653.39
2019-04-06T05:15:07.817Z,100650.84
2019-04-06T05:20:13.171Z,100651.66
2019-04-06T05:25:14.870Z,100654.29
2019-04-06T05:30:16.525Z,100656.90
2019-04-06T05:35:18.957Z,100663.99
2019-04-06T05:40:20.513Z,100663.66
2019-04-06T05:45:22.057Z,100662.39
2019-04-06T05:50:23.658Z,100656.00
2019-04-06T05:55:25.636Z,100669.89
2019-04-06T06:00:27.195Z,100670.01
2019-04-06T06:05:28.731Z,100666.73
2019-04-06T06:10:30.595Z,100663.73
2019-04-06T06:15:32.152Z,100670.94
2019-04-06T06:20:33.813Z,100677.73
2019-04-06T06:25:35.418Z,100678.91
2019-04-06T06:30:36.962Z,100685.41
2019-04-06T06:35:38.629Z,100682.94
2019-04-06T06:40:40.246Z,100683.42
2019-04-06T06:45:42.257Z,100693.32
2019-04-06T06:50:43.848Z,100688.91
2019-04-06T06:55:48.611Z,100690.97
2019-04-06T07:00:52.295Z,100684.72
2019-04-06T07:05:53.896Z,100682.80
2019-04-06T07:10:56.106Z,100680.07
2019-04-06T07:15:58.736Z,100691.81
2019-04-06T07:21:00.488Z,100695.93
2019-04-06T07:26:02.058Z,100688.58
2019-04-06T07:31:03.723Z,100693.83
2019-04-06T07:36:05.475Z,100692.09
2019-04-06T07:41:07.585Z,100691.94
2019-04-06T07:46:10.438Z,100691.89
2019-04-06T07:51:11.999Z,100692.45
2019-04-06T07:56:13.570Z,100684.81
2019-04-06T08:01:15.303Z,100687.48
2019-04-06T08:06:16.879Z,100679.30
2019-04-06T08:11:18.514Z,100691.78
2019-04-06T08:16:20.511Z,100689.73
2019-04-06T08:21:22.715Z,100689.66
2019-04-06T08:26:24.636Z,100678.88
2019-04-06T08:31:26.613Z,100675.21
2019-04-06T08:36:28.231Z,100674.58
2019-04-06T08:41:29.890Z,100674.06
2019-04-06T08:46:31.458Z,100682.09
2019-04-06T08:51:33.083Z,100672.20
2019-04-06T08:56:34.655Z,100682.97
2019-04-06T09:01:36.551Z,100681.67
2019-04-06T09:06:38.481Z,100677.36
2019-04-06T09:11:43.889Z,100679.38
2019-04-06T09:16:46.297Z,100680.84
2019-04-06T09:21:47.924Z,100681.41
2019-04-06T09:26:50.254Z,100674.30
2019-04-06T09:31:51.910Z,100676.34
2019-04-06T09:36:56.231Z,100673.18
2019-04-06T09:41:57.962Z,100665.52
2019-04-06T09:46:59.738Z,100658.83
2019-04-06T09:52:01.353Z,100652.58
2019-04-06T09:57:02.927Z,100660.09
2019-04-06T10:02:04.860Z,100651.66
2019-04-06T10:07:06.608Z,100654.16
2019-04-06T10:12:08.307Z,100652.03
2019-04-06T10:17:10.381Z,100650.70
2019-04-06T10:22:12.029Z,100641.97
2019-04-06T10:27:13.696Z,100634.36
2019-04-06T10:32:15.837Z,100639.83
2019-04-06T10:37:17.613Z,100635.27
2019-04-06T10:42:19.437Z,100634.98
2019-04-06T10:47:21.127Z,100636.89
2019-04-06T10:52:22.776Z,100637.94
2019-04-06T10:57:24.369Z,100633.92
2019-04-06T11:02:27.182Z,100631.41
2019-04-06T11:07:29.081Z,100633.75
2019-04-06T11:12:33.740Z,100634.05
2019-04-06T11:17:35.348Z,100628.64
2019-04-06T11:22:37.114Z,100621.55
2019-04-06T11:27:38.863Z,100619.37
2019-04-06T11:32:40.438Z,100619.94
2019-04-06T11:37:42.136Z,100614.73
2019-04-06T11:42:43.833Z,100615.70
2019-04-06T11:47:45.654Z,100612.23
2019-04-06T11:52:47.218Z,100616.73
2019-04-06T11:57:48.821Z,100604.73
2019-04-06T12:02:50.939Z,100614.94
2019-04-06T12:07:52.623Z,100614.94
2019-04-06T12:12:55.833Z,100611.34
2019-04-06T12:17:57.986Z,100606.52
2019-04-06T12:23:00.220Z,100606.52
2019-04-06T12:28:02.006Z,100605.20
2019-04-06T12:33:03.998Z,100602.53
2019-04-06T12:38:05.582Z,100604.76
2019-04-06T12:43:08.233Z,100603.00
2019-04-06T12:48:10.152Z,100598.07
2019-04-06T12:53:11.817Z,100596.63
2019-04-06T12:58:13.439Z,100587.20
2019-04-06T13:03:15.083Z,100584.04
2019-04-06T13:08:18.670Z,100582.78
2019-04-06T13:13:20.302Z,100579.81
2019-04-06T13:18:21.886Z,100575.87
2019-04-06T13:23:24.176Z,100582.56
2019-04-06T13:28:26.039Z,100577.27
2019-04-06T13:33:27.927Z,100572.84
2019-04-06T13:38:29.907Z,100571.53
2019-04-06T13:43:31.923Z,100571.53
2019-04-06T13:48:33.449Z,100567.95
2019-04-06T13:53:35.089Z,100578.14
2019-04-06T13:58:36.720Z,100571.95
2019-04-06T14:03:38.395Z,100563.97
2019-04-06T14:08:40.085Z,100559.97
2019-04-06T14:13:41.964Z,100559.07
2019-04-06T14:18:43.914Z,100567.50
2019-04-06T14:23:46.272Z,100562.17
2019-04-06T14:28:48.383Z,100557.72
2019-04-06T14:33:49.991Z,100555.53
2019-04-06T14:38:51.985Z,100547.58
2019-04-06T14:43:53.566Z,100549.33
2019-04-06T14:48:55.557Z,100548.87
2019-04-06T14:53:57.797Z,100549.30
2019-04-06T14:58:59.572Z,100542.23
2019-04-06T15:04:01.230Z,100543.48
2019-04-06T15:09:05.831Z,100541.73
2019-04-06T15:14:07.683Z,100540.81
2019-04-06T15:19:09.705Z,100543.54
2019-04-06T15:24:11.647Z,100546.60
2019-04-06T15:29:13.918Z,100543.49
2019-04-06T15:34:15.518Z,100543.05
2019-04-06T15:39:17.821Z,100545.29
2019-04-06T15:44:19.534Z,100545.27
2019-04-06T15:49:21.330Z,100531.93
2019-04-06T15:54:23.500Z,100538.09
2019-04-06T15:59:25.507Z,100535.44
2019-04-06T16:04:27.619Z,100537.61
2019-04-06T16:09:29.390Z,100528.27
2019-04-06T16:14:30.930Z,100530.00
2019-04-06T16:19:33.126Z,100526.94
2019-04-06T16:24:34.843Z,100528.70
2019-04-06T16:29:36.458Z,100525.59
2019-04-06T16:34:38.191Z,100526.51
2019-04-06T16:39:40.216Z,100531.33
2019-04-06T16:44:41.909Z,100523.80
2019-04-06T16:49:43.505Z,100525.14
2019-04-06T16:54:45.378Z,100523.84
2019-04-06T16:59:46.960Z,100520.34
2019-04-06T17:04:48.670Z,100525.30
2019-04-06T17:09:50.308Z,100531.56
2019-04-06T17:15:04.010Z,100537.38
2019-04-06T17:20:05.794Z,100532.50
2019-04-06T17:25:07.714Z,100543.16
2019-04-06T17:30:09.995Z,100541.37
2019-04-06T17:35:11.990Z,100547.52
2019-04-06T17:40:14.163Z,100543.42
2019-04-06T17:45:16.149Z,100553.03
2019-04-06T17:50:19.819Z,100556.02
2019-04-06T17:55:21.845Z,100562.88
2019-04-06T18:00:24.109Z,100564.48
2019-04-06T18:05:26.112Z,100567.79
2019-04-06T18:10:28.144Z,100573.32
2019-04-06T18:15:29.822Z,100571.31
2019-04-06T18:20:31.473Z,100571.04
2019-04-06T18:25:33.401Z,100580.94
2019-04-06T18:30:36.054Z,100582.00
2019-04-06T18:35:42.944Z,100580.44
2019-04-06T18:40:49.060Z,100589.39
2019-04-06T18:45:55.727Z,100594.23
2019-04-06T18:51:04.296Z,100590.46
2019-04-06T18:56:11.863Z,100600.38
2019-04-06T19:01:20.343Z,100602.34
2019-04-06T19:06:26.335Z,100611.31
2019-04-06T19:11:33.911Z,100617.56
2019-04-06T19:16:37.689Z,100618.19
2019-04-06T19:21:44.467Z,100621.87
2019-04-06T19:26:52.081Z,100629.08
2019-04-06T19:31:57.245Z,100636.76
2019-04-06T19:37:09.187Z,100637.33
2019-04-06T19:42:19.316Z,100648.14
2019-04-06T19:47:23.386Z,100649.23
2019-04-06T19:52:30.029Z,100642.41
2019-04-06T19:57:37.009Z,100644.03
2019-04-06T20:02:45.187Z,100644.77
2019-04-06T20:07:54.977Z,100642.88
2019-04-06T20:13:04.257Z,100647.50
2019-04-06T20:18:10.407Z,100641.63
2019-04-06T20:23:23.518Z,100640.45
2019-04-06T20:28:32.073Z,100639.25
2019-04-06T20:33:50.189Z,100645.49
2019-04-06T20:38:49.299Z,100630.39
2019-04-06T20:44:01.878Z,100627.20
2019-04-06T20:49:11.890Z,100634.86
2019-04-06T20:54:22.979Z,100631.69
2019-04-06T20:59:31.612Z,100638.45
2019-04-06T21:04:40.259Z,100639.19
2019-04-06T21:09:49.921Z,100640.20
2019-04-06T21:15:01.039Z,100644.81
2019-04-06T21:20:09.050Z,100643.48
2019-04-06T21:25:19.468Z,100645.59
2019-04-06T21:30:32.435Z,100644.59
2019-04-06T21:35:50.169Z,100643.14
2019-04-06T21:40:55.234Z,100643.39
2019-04-06T21:46:10.542Z,100635.30
2019-04-06T21:51:19.374Z,100640.14
2019-04-06T21:56:30.554Z,100636.36
2019-04-06T22:01:44.348Z,100639.66
2019-04-06T22:06:58.320Z,100644.63
2019-04-06T22:12:15.298Z,100636.78
2019-04-06T22:17:25.518Z,100638.20
2019-04-06T22:22:35.384Z,100643.31
2019-04-06T22:27:49.285Z,100636.15
2019-04-06T22:33:03.895Z,100637.36
2019-04-06T22:38:24.005Z,100639.49
2019-04-06T22:43:48.024Z,100634.96
2019-04-06T22:49:07.805Z,100625.12
2019-04-06T22:54:24.013Z,100628.16
2019-04-06T22:59:49.624Z,100617.56
2019-04-06T23:05:08.602Z,100618.77
2019-04-06T23:10:29.450Z,100611.10
2019-04-06T23:15:54.202Z,100606.81
2019-04-06T23:21:15.741Z,100606.87
2019-04-06T23:26:46.553Z,100604.45
2019-04-06T23:32:12.457Z,100603.27
2019-04-06T23:37:36.981Z,100595.58
2019-04-06T23:43:00.078Z,100601.38
2019-04-06T23:48:31.829Z,100599.73
2019-04-06T23:54:10.283Z,100595.27
2019-04-06T23:59:35.235Z,100594.11
